Airfield :
LOGIN :

Register | Disclaimer

   EN    FR    IT 

 










Legend :    VFR   Marginal VFR   IFR   Intensive IFR   Very Intensive IFR
Visi :
Ceiling :
>= 8 km
>= 3000ft
5 to 8 km
1000 to 3000 ft
1500m to 5 km
500 to 1000 ft
800 to 1500m
200 to 500 ft
< 800m
< 200 ft
Symbols :   Thunderstorms  Fog  Heavy snow  Heavy precipitations  Wind > 20 kt
SIGMETs :     Misc.  Thunderstorms  Icing  Turbulence  Mountain Waves  Volcanic Ashes







- Airport Elevation : 135 ft
- IATA code : EDI
- Download approach charts


EGPH - Edinburgh

CURRENT METAR :
  • 150220Z 14007KT CAVOK 02/M05 Q1016

EXPIRED METARs :
  • 150150Z 16008KT 110V190 CAVOK 02/M05 Q1016
  • 150120Z 17013G24KT 130V200 CAVOK 03/M05 Q1016
  • 150050Z 16009KT 110V220 CAVOK 03/M04 Q1015
  • 150020Z 16012KT 130V200 CAVOK 03/M04 Q1016
  • 142350Z 16009KT 090V230 CAVOK 03/M04 Q1016

TAF TAF EGPH
Valid from the 15 at 00:00 until the 16 at 00:00 UTC


142257Z 1500/1524 15008KT 9999 SCT030
TEMPO 1515/1524 14018G30KT 7000 -RA BKN014
PROB30
TEMPO 1515/1521 4500 RASN FZRA BKN009
ATIS : +44 131 339 2823
No reported NOTAMs for that airfield.
1 SIGMET reported for the Scottish FIR (EGPX) :
 
Severe turbulence
EGPX SIGMET 01 VALID 150100/150400 EGRR
EGPX SCOTTISH FIR SEV TURB FCST W OF LINE N5958 E00003 - N5500 W00341 SFC/FL060 MOV E 05KT NC=



MET'MAP, your aeronautical weather chart ! - Copyright ORBIFLY December 2007 - Disclaimer

ORBIFLY MET'MAP TEAM :

Programming & Development : Alexandra Zaïnal
Concept & Development : Baudouin d'Aumeries
Co-Development & Prog : Marc-Olivier Méhu
Technical & hardware support : Manuel Goepfert

Contact : metmap@orbifly.com




SOURCES & CREDITS :

   NOAA